sensor_id;sensor_type;location;lat;lon;timestamp;P1;durP1;ratioP1;P2;durP2;ratioP2
64894;SDS011;51588;53.702;10.208;2022-10-31T00:00:15;5.73;;;5.13;;
64894;SDS011;51588;53.702;10.208;2022-10-31T00:02:41;6.77;;;5.40;;
64894;SDS011;51588;53.702;10.208;2022-10-31T00:05:08;6.30;;;5.60;;
64894;SDS011;51588;53.702;10.208;2022-10-31T00:07:35;6.60;;;5.23;;
64894;SDS011;51588;53.702;10.208;2022-10-31T00:10:03;9.10;;;6.07;;
64894;SDS011;51588;53.702;10.208;2022-10-31T00:12:30;7.90;;;5.93;;
64894;SDS011;51588;53.702;10.208;2022-10-31T00:14:57;7.93;;;6.13;;
64894;SDS011;51588;53.702;10.208;2022-10-31T00:17:23;7.23;;;6.20;;
64894;SDS011;51588;53.702;10.208;2022-10-31T00:19:50;6.80;;;5.80;;
64894;SDS011;51588;53.702;10.208;2022-10-31T00:22:16;7.27;;;5.47;;
64894;SDS011;51588;53.702;10.208;2022-10-31T00:24:43;6.67;;;6.00;;
64894;SDS011;51588;53.702;10.208;2022-10-31T00:27:11;7.70;;;5.47;;
64894;SDS011;51588;53.702;10.208;2022-10-31T00:29:37;7.10;;;5.97;;
64894;SDS011;51588;53.702;10.208;2022-10-31T00:32:04;6.93;;;6.13;;
64894;SDS011;51588;53.702;10.208;2022-10-31T00:34:30;7.13;;;6.33;;
64894;SDS011;51588;53.702;10.208;2022-10-31T00:36:57;6.23;;;5.40;;
64894;SDS011;51588;53.702;10.208;2022-10-31T00:39:23;7.33;;;6.30;;
64894;SDS011;51588;53.702;10.208;2022-10-31T00:41:50;8.87;;;6.17;;
64894;SDS011;51588;53.702;10.208;2022-10-31T00:44:18;8.90;;;6.77;;
64894;SDS011;51588;53.702;10.208;2022-10-31T00:46:44;7.87;;;6.87;;
64894;SDS011;51588;53.702;10.208;2022-10-31T00:49:11;9.90;;;7.23;;
64894;SDS011;51588;53.702;10.208;2022-10-31T00:51:37;9.13;;;7.60;;
64894;SDS011;51588;53.702;10.208;2022-10-31T00:54:04;9.53;;;7.50;;
64894;SDS011;51588;53.702;10.208;2022-10-31T00:56:30;9.50;;;7.50;;
64894;SDS011;51588;53.702;10.208;2022-10-31T00:58:57;10.03;;;8.23;;
64894;SDS011;51588;53.702;10.208;2022-10-31T01:01:25;8.60;;;7.70;;
64894;SDS011;51588;53.702;10.208;2022-10-31T01:03:51;10.20;;;7.57;;
64894;SDS011;51588;53.702;10.208;2022-10-31T01:06:18;11.07;;;7.87;;
64894;SDS011;51588;53.702;10.208;2022-10-31T01:08:45;10.33;;;8.20;;
64894;SDS011;51588;53.702;10.208;2022-10-31T01:11:13;12.27;;;8.10;;
64894;SDS011;51588;53.702;10.208;2022-10-31T01:13:42;10.77;;;8.30;;
64894;SDS011;51588;53.702;10.208;2022-10-31T01:16:10;12.20;;;9.50;;
64894;SDS011;51588;53.702;10.208;2022-10-31T01:18:39;12.87;;;8.17;;
64894;SDS011;51588;53.702;10.208;2022-10-31T01:21:06;11.77;;;8.80;;
64894;SDS011;51588;53.702;10.208;2022-10-31T01:23:35;11.10;;;8.67;;
64894;SDS011;51588;53.702;10.208;2022-10-31T01:26:03;10.57;;;8.60;;
64894;SDS011;51588;53.702;10.208;2022-10-31T01:28:34;13.43;;;8.87;;
64894;SDS011;51588;53.702;10.208;2022-10-31T01:31:03;12.10;;;9.13;;
64894;SDS011;51588;53.702;10.208;2022-10-31T01:33:31;10.23;;;9.10;;
64894;SDS011;51588;53.702;10.208;2022-10-31T01:36:00;11.13;;;8.50;;
64894;SDS011;51588;53.702;10.208;2022-10-31T01:38:26;11.07;;;8.70;;
64894;SDS011;51588;53.702;10.208;2022-10-31T01:40:53;10.13;;;8.43;;
64894;SDS011;51588;53.702;10.208;2022-10-31T01:43:19;11.23;;;8.27;;
64894;SDS011;51588;53.702;10.208;2022-10-31T01:45:47;11.23;;;8.80;;
64894;SDS011;51588;53.702;10.208;2022-10-31T01:48:19;10.97;;;8.00;;
64894;SDS011;51588;53.702;10.208;2022-10-31T01:50:48;10.03;;;8.97;;
64894;SDS011;51588;53.702;10.208;2022-10-31T01:53:19;11.63;;;8.60;;
64894;SDS011;51588;53.702;10.208;2022-10-31T01:55:46;13.77;;;9.37;;
64894;SDS011;51588;53.702;10.208;2022-10-31T01:58:13;11.37;;;8.43;;
64894;SDS011;51588;53.702;10.208;2022-10-31T02:00:43;10.93;;;8.87;;
64894;SDS011;51588;53.702;10.208;2022-10-31T02:03:12;11.40;;;8.87;;
64894;SDS011;51588;53.702;10.208;2022-10-31T02:05:39;11.57;;;9.20;;
64894;SDS011;51588;53.702;10.208;2022-10-31T02:08:10;11.50;;;8.60;;
64894;SDS011;51588;53.702;10.208;2022-10-31T02:10:41;12.00;;;9.10;;
64894;SDS011;51588;53.702;10.208;2022-10-31T02:13:09;12.83;;;9.13;;
64894;SDS011;51588;53.702;10.208;2022-10-31T02:15:38;11.97;;;9.27;;
64894;SDS011;51588;53.702;10.208;2022-10-31T02:18:06;9.87;;;8.60;;
64894;SDS011;51588;53.702;10.208;2022-10-31T02:20:36;11.47;;;9.10;;
64894;SDS011;51588;53.702;10.208;2022-10-31T02:23:15;13.17;;;9.33;;
64894;SDS011;51588;53.702;10.208;2022-10-31T02:26:04;11.50;;;9.00;;
64894;SDS011;51588;53.702;10.208;2022-10-31T02:28:52;10.20;;;8.93;;
64894;SDS011;51588;53.702;10.208;2022-10-31T02:31:33;12.43;;;9.13;;
64894;SDS011;51588;53.702;10.208;2022-10-31T02:34:08;14.40;;;9.30;;
64894;SDS011;51588;53.702;10.208;2022-10-31T02:36:43;14.90;;;9.43;;
64894;SDS011;51588;53.702;10.208;2022-10-31T02:39:20;10.60;;;8.57;;
64894;SDS011;51588;53.702;10.208;2022-10-31T02:41:51;13.00;;;9.33;;
64894;SDS011;51588;53.702;10.208;2022-10-31T02:44:22;13.40;;;9.60;;
64894;SDS011;51588;53.702;10.208;2022-10-31T02:46:57;10.87;;;9.00;;
64894;SDS011;51588;53.702;10.208;2022-10-31T02:49:27;10.80;;;9.10;;
64894;SDS011;51588;53.702;10.208;2022-10-31T02:51:58;10.60;;;9.30;;
64894;SDS011;51588;53.702;10.208;2022-10-31T02:54:25;12.10;;;9.20;;
64894;SDS011;51588;53.702;10.208;2022-10-31T02:56:54;11.80;;;9.30;;
64894;SDS011;51588;53.702;10.208;2022-10-31T02:59:24;11.57;;;9.70;;
64894;SDS011;51588;53.702;10.208;2022-10-31T03:02:08;10.90;;;9.27;;
64894;SDS011;51588;53.702;10.208;2022-10-31T03:07:42;13.17;;;10.20;;
64894;SDS011;51588;53.702;10.208;2022-10-31T03:10:17;10.90;;;9.57;;
64894;SDS011;51588;53.702;10.208;2022-10-31T03:12:54;13.30;;;9.70;;
64894;SDS011;51588;53.702;10.208;2022-10-31T03:15:28;14.13;;;9.83;;
64894;SDS011;51588;53.702;10.208;2022-10-31T03:18:00;14.87;;;10.47;;
64894;SDS011;51588;53.702;10.208;2022-10-31T03:20:36;14.20;;;10.40;;
64894;SDS011;51588;53.702;10.208;2022-10-31T03:23:08;17.90;;;10.83;;
64894;SDS011;51588;53.702;10.208;2022-10-31T03:25:39;13.30;;;10.10;;
64894;SDS011;51588;53.702;10.208;2022-10-31T03:28:07;14.60;;;10.63;;
64894;SDS011;51588;53.702;10.208;2022-10-31T03:30:38;12.30;;;10.03;;
64894;SDS011;51588;53.702;10.208;2022-10-31T03:33:12;13.47;;;10.30;;
64894;SDS011;51588;53.702;10.208;2022-10-31T03:35:42;15.07;;;11.00;;
64894;SDS011;51588;53.702;10.208;2022-10-31T03:38:13;13.57;;;10.20;;
64894;SDS011;51588;53.702;10.208;2022-10-31T03:40:41;14.47;;;10.67;;
64894;SDS011;51588;53.702;10.208;2022-10-31T03:43:13;13.00;;;10.03;;
64894;SDS011;51588;53.702;10.208;2022-10-31T03:45:43;14.10;;;10.23;;
64894;SDS011;51588;53.702;10.208;2022-10-31T03:48:14;15.90;;;10.60;;
64894;SDS011;51588;53.702;10.208;2022-10-31T03:50:45;16.97;;;11.40;;
64894;SDS011;51588;53.702;10.208;2022-10-31T03:53:16;14.70;;;10.40;;
64894;SDS011;51588;53.702;10.208;2022-10-31T03:55:49;16.93;;;10.67;;
64894;SDS011;51588;53.702;10.208;2022-10-31T03:58:20;14.87;;;10.47;;
64894;SDS011;51588;53.702;10.208;2022-10-31T04:00:50;14.77;;;9.80;;
64894;SDS011;51588;53.702;10.208;2022-10-31T04:03:21;15.00;;;10.60;;
64894;SDS011;51588;53.702;10.208;2022-10-31T04:05:52;14.53;;;10.40;;
64894;SDS011;51588;53.702;10.208;2022-10-31T04:08:28;16.30;;;10.70;;
64894;SDS011;51588;53.702;10.208;2022-10-31T04:10:57;14.40;;;10.73;;
64894;SDS011;51588;53.702;10.208;2022-10-31T04:13:26;14.47;;;9.33;;
64894;SDS011;51588;53.702;10.208;2022-10-31T04:15:56;13.77;;;10.20;;
64894;SDS011;51588;53.702;10.208;2022-10-31T04:18:24;14.73;;;10.00;;
64894;SDS011;51588;53.702;10.208;2022-10-31T04:20:59;16.53;;;10.90;;
64894;SDS011;51588;53.702;10.208;2022-10-31T04:23:27;15.50;;;11.30;;
64894;SDS011;51588;53.702;10.208;2022-10-31T04:25:54;14.47;;;10.80;;
64894;SDS011;51588;53.702;10.208;2022-10-31T04:28:21;16.53;;;10.23;;
64894;SDS011;51588;53.702;10.208;2022-10-31T04:30:47;16.90;;;10.63;;
64894;SDS011;51588;53.702;10.208;2022-10-31T04:33:14;13.43;;;9.57;;
64894;SDS011;51588;53.702;10.208;2022-10-31T04:35:42;16.00;;;11.00;;
64894;SDS011;51588;53.702;10.208;2022-10-31T04:38:09;15.13;;;11.07;;
64894;SDS011;51588;53.702;10.208;2022-10-31T04:40:35;16.23;;;11.63;;
64894;SDS011;51588;53.702;10.208;2022-10-31T04:43:02;13.30;;;10.20;;
64894;SDS011;51588;53.702;10.208;2022-10-31T04:45:28;12.93;;;9.53;;
64894;SDS011;51588;53.702;10.208;2022-10-31T04:47:55;14.37;;;10.93;;
64894;SDS011;51588;53.702;10.208;2022-10-31T04:50:22;14.20;;;9.83;;
64894;SDS011;51588;53.702;10.208;2022-10-31T04:52:50;15.93;;;10.10;;
64894;SDS011;51588;53.702;10.208;2022-10-31T04:55:17;13.10;;;9.40;;
64894;SDS011;51588;53.702;10.208;2022-10-31T04:57:43;15.40;;;10.67;;
64894;SDS011;51588;53.702;10.208;2022-10-31T05:00:11;15.20;;;10.27;;
64894;SDS011;51588;53.702;10.208;2022-10-31T05:02:42;14.90;;;9.27;;
64894;SDS011;51588;53.702;10.208;2022-10-31T05:05:09;14.80;;;10.20;;
64894;SDS011;51588;53.702;10.208;2022-10-31T05:07:37;12.90;;;9.60;;
64894;SDS011;51588;53.702;10.208;2022-10-31T05:10:07;14.83;;;9.87;;
64894;SDS011;51588;53.702;10.208;2022-10-31T05:12:35;12.97;;;9.70;;
64894;SDS011;51588;53.702;10.208;2022-10-31T05:15:02;14.37;;;9.90;;
64894;SDS011;51588;53.702;10.208;2022-10-31T05:17:30;15.67;;;10.23;;
64894;SDS011;51588;53.702;10.208;2022-10-31T05:19:56;14.43;;;9.90;;
64894;SDS011;51588;53.702;10.208;2022-10-31T05:22:23;16.50;;;10.67;;
64894;SDS011;51588;53.702;10.208;2022-10-31T05:24:49;14.87;;;10.33;;
64894;SDS011;51588;53.702;10.208;2022-10-31T05:27:17;13.80;;;10.30;;
64894;SDS011;51588;53.702;10.208;2022-10-31T05:29:44;13.67;;;10.10;;
64894;SDS011;51588;53.702;10.208;2022-10-31T05:32:10;16.33;;;10.43;;
64894;SDS011;51588;53.702;10.208;2022-10-31T05:34:37;15.70;;;10.10;;
64894;SDS011;51588;53.702;10.208;2022-10-31T05:37:03;13.77;;;9.70;;
64894;SDS011;51588;53.702;10.208;2022-10-31T05:39:30;14.37;;;9.67;;
64894;SDS011;51588;53.702;10.208;2022-10-31T05:41:56;15.93;;;9.73;;
64894;SDS011;51588;53.702;10.208;2022-10-31T05:44:24;11.73;;;9.20;;
64894;SDS011;51588;53.702;10.208;2022-10-31T05:46:50;14.83;;;10.20;;
64894;SDS011;51588;53.702;10.208;2022-10-31T05:49:17;13.70;;;10.23;;
64894;SDS011;51588;53.702;10.208;2022-10-31T05:51:44;15.23;;;9.77;;
64894;SDS011;51588;53.702;10.208;2022-10-31T05:54:10;14.70;;;10.07;;
64894;SDS011;51588;53.702;10.208;2022-10-31T05:56:36;14.97;;;10.40;;
64894;SDS011;51588;53.702;10.208;2022-10-31T05:59:03;12.70;;;10.40;;
64894;SDS011;51588;53.702;10.208;2022-10-31T06:01:31;13.93;;;10.33;;
64894;SDS011;51588;53.702;10.208;2022-10-31T06:03:57;13.17;;;9.73;;
64894;SDS011;51588;53.702;10.208;2022-10-31T06:06:24;13.77;;;9.60;;
64894;SDS011;51588;53.702;10.208;2022-10-31T06:08:50;14.57;;;9.70;;
64894;SDS011;51588;53.702;10.208;2022-10-31T06:11:17;14.63;;;9.80;;
64894;SDS011;51588;53.702;10.208;2022-10-31T06:13:43;12.67;;;9.47;;
64894;SDS011;51588;53.702;10.208;2022-10-31T06:16:10;14.00;;;10.07;;
64894;SDS011;51588;53.702;10.208;2022-10-31T06:18:38;15.33;;;9.47;;
64894;SDS011;51588;53.702;10.208;2022-10-31T06:21:04;14.90;;;10.00;;
64894;SDS011;51588;53.702;10.208;2022-10-31T06:23:31;12.23;;;9.27;;
64894;SDS011;51588;53.702;10.208;2022-10-31T06:25:57;15.00;;;8.60;;
64894;SDS011;51588;53.702;10.208;2022-10-31T06:28:24;11.60;;;8.30;;
64894;SDS011;51588;53.702;10.208;2022-10-31T06:30:50;11.57;;;8.77;;
64894;SDS011;51588;53.702;10.208;2022-10-31T06:33:17;12.23;;;8.70;;
64894;SDS011;51588;53.702;10.208;2022-10-31T06:35:46;12.57;;;9.03;;
64894;SDS011;51588;53.702;10.208;2022-10-31T06:38:13;14.77;;;9.20;;
64894;SDS011;51588;53.702;10.208;2022-10-31T06:40:39;11.90;;;8.70;;
64894;SDS011;51588;53.702;10.208;2022-10-31T06:43:06;12.23;;;8.73;;
64894;SDS011;51588;53.702;10.208;2022-10-31T06:45:32;12.33;;;8.50;;
64894;SDS011;51588;53.702;10.208;2022-10-31T06:47:59;10.60;;;8.10;;
64894;SDS011;51588;53.702;10.208;2022-10-31T06:50:26;10.40;;;7.83;;
64894;SDS011;51588;53.702;10.208;2022-10-31T06:52:55;11.23;;;8.10;;
64894;SDS011;51588;53.702;10.208;2022-10-31T06:55:23;12.93;;;8.30;;
64894;SDS011;51588;53.702;10.208;2022-10-31T06:57:50;10.73;;;8.47;;
64894;SDS011;51588;53.702;10.208;2022-10-31T07:00:17;11.10;;;7.70;;
64894;SDS011;51588;53.702;10.208;2022-10-31T07:02:44;9.57;;;7.80;;
64894;SDS011;51588;53.702;10.208;2022-10-31T07:05:19;11.93;;;7.70;;
64894;SDS011;51588;53.702;10.208;2022-10-31T07:07:45;9.53;;;7.50;;
64894;SDS011;51588;53.702;10.208;2022-10-31T07:10:13;9.07;;;7.03;;
64894;SDS011;51588;53.702;10.208;2022-10-31T07:12:40;10.80;;;7.67;;
64894;SDS011;51588;53.702;10.208;2022-10-31T07:15:06;9.77;;;7.60;;
64894;SDS011;51588;53.702;10.208;2022-10-31T07:17:33;9.93;;;7.40;;
64894;SDS011;51588;53.702;10.208;2022-10-31T07:20:00;12.53;;;7.63;;
64894;SDS011;51588;53.702;10.208;2022-10-31T07:22:31;15.47;;;7.70;;
64894;SDS011;51588;53.702;10.208;2022-10-31T07:24:58;10.33;;;7.33;;
64894;SDS011;51588;53.702;10.208;2022-10-31T07:27:26;9.10;;;7.00;;
64894;SDS011;51588;53.702;10.208;2022-10-31T07:29:52;8.73;;;6.77;;
64894;SDS011;51588;53.702;10.208;2022-10-31T07:32:19;9.73;;;7.30;;
64894;SDS011;51588;53.702;10.208;2022-10-31T07:34:45;14.60;;;7.40;;
64894;SDS011;51588;53.702;10.208;2022-10-31T07:37:12;11.63;;;8.10;;
64894;SDS011;51588;53.702;10.208;2022-10-31T07:39:38;16.33;;;8.20;;
64894;SDS011;51588;53.702;10.208;2022-10-31T07:42:05;10.23;;;6.60;;
64894;SDS011;51588;53.702;10.208;2022-10-31T07:44:33;12.67;;;7.70;;
64894;SDS011;51588;53.702;10.208;2022-10-31T07:46:59;14.73;;;7.30;;
64894;SDS011;51588;53.702;10.208;2022-10-31T07:49:26;10.53;;;6.87;;
64894;SDS011;51588;53.702;10.208;2022-10-31T07:51:52;12.07;;;6.70;;
64894;SDS011;51588;53.702;10.208;2022-10-31T07:54:19;11.63;;;6.50;;
64894;SDS011;51588;53.702;10.208;2022-10-31T07:56:45;9.63;;;7.23;;
64894;SDS011;51588;53.702;10.208;2022-10-31T07:59:12;11.70;;;7.30;;
64894;SDS011;51588;53.702;10.208;2022-10-31T08:01:41;8.77;;;7.00;;
64894;SDS011;51588;53.702;10.208;2022-10-31T08:04:07;18.93;;;7.27;;
64894;SDS011;51588;53.702;10.208;2022-10-31T08:06:34;10.87;;;6.60;;
64894;SDS011;51588;53.702;10.208;2022-10-31T08:09:00;16.57;;;6.80;;
64894;SDS011;51588;53.702;10.208;2022-10-31T08:11:27;9.07;;;6.23;;
64894;SDS011;51588;53.702;10.208;2022-10-31T08:13:53;10.67;;;6.53;;
64894;SDS011;51588;53.702;10.208;2022-10-31T08:16:20;14.87;;;7.27;;
64894;SDS011;51588;53.702;10.208;2022-10-31T08:18:48;14.33;;;7.50;;
64894;SDS011;51588;53.702;10.208;2022-10-31T08:21:14;40.20;;;12.83;;
64894;SDS011;51588;53.702;10.208;2022-10-31T08:23:41;42.37;;;13.33;;
64894;SDS011;51588;53.702;10.208;2022-10-31T08:26:07;37.57;;;11.77;;
64894;SDS011;51588;53.702;10.208;2022-10-31T08:28:34;38.83;;;11.43;;
64894;SDS011;51588;53.702;10.208;2022-10-31T08:31:00;35.30;;;11.93;;
64894;SDS011;51588;53.702;10.208;2022-10-31T08:33:26;34.83;;;10.73;;
64894;SDS011;51588;53.702;10.208;2022-10-31T08:35:54;28.63;;;9.80;;
64894;SDS011;51588;53.702;10.208;2022-10-31T08:38:23;21.27;;;10.30;;
64894;SDS011;51588;53.702;10.208;2022-10-31T08:40:50;43.20;;;9.73;;
64894;SDS011;51588;53.702;10.208;2022-10-31T08:43:17;26.83;;;9.33;;
64894;SDS011;51588;53.702;10.208;2022-10-31T08:45:44;25.20;;;8.37;;
64894;SDS011;51588;53.702;10.208;2022-10-31T08:48:15;31.97;;;9.40;;
64894;SDS011;51588;53.702;10.208;2022-10-31T08:50:43;20.57;;;8.40;;
64894;SDS011;51588;53.702;10.208;2022-10-31T08:53:13;22.87;;;8.37;;
64894;SDS011;51588;53.702;10.208;2022-10-31T08:55:41;19.80;;;7.60;;
64894;SDS011;51588;53.702;10.208;2022-10-31T08:58:10;23.07;;;8.20;;
64894;SDS011;51588;53.702;10.208;2022-10-31T09:00:38;20.10;;;7.60;;
64894;SDS011;51588;53.702;10.208;2022-10-31T09:03:06;16.33;;;7.93;;
64894;SDS011;51588;53.702;10.208;2022-10-31T09:05:35;17.53;;;7.10;;
64894;SDS011;51588;53.702;10.208;2022-10-31T09:08:02;16.33;;;7.30;;
64894;SDS011;51588;53.702;10.208;2022-10-31T09:10:32;18.63;;;7.90;;
64894;SDS011;51588;53.702;10.208;2022-10-31T09:13:00;17.70;;;7.57;;
64894;SDS011;51588;53.702;10.208;2022-10-31T09:15:31;14.13;;;6.97;;
64894;SDS011;51588;53.702;10.208;2022-10-31T09:17:58;15.60;;;6.97;;
64894;SDS011;51588;53.702;10.208;2022-10-31T09:20:25;13.93;;;6.40;;
64894;SDS011;51588;53.702;10.208;2022-10-31T09:22:56;13.40;;;6.70;;
64894;SDS011;51588;53.702;10.208;2022-10-31T09:25:23;19.00;;;6.70;;
64894;SDS011;51588;53.702;10.208;2022-10-31T09:27:51;17.40;;;6.93;;
64894;SDS011;51588;53.702;10.208;2022-10-31T09:30:21;20.80;;;6.93;;
64894;SDS011;51588;53.702;10.208;2022-10-31T09:32:47;16.13;;;7.23;;
64894;SDS011;51588;53.702;10.208;2022-10-31T09:35:14;13.20;;;6.80;;
64894;SDS011;51588;53.702;10.208;2022-10-31T09:37:40;14.47;;;6.87;;
64894;SDS011;51588;53.702;10.208;2022-10-31T09:40:07;14.77;;;6.73;;
64894;SDS011;51588;53.702;10.208;2022-10-31T09:42:41;15.43;;;6.53;;
64894;SDS011;51588;53.702;10.208;2022-10-31T09:45:20;13.70;;;6.30;;
64894;SDS011;51588;53.702;10.208;2022-10-31T09:47:56;10.57;;;6.60;;
64894;SDS011;51588;53.702;10.208;2022-10-31T09:50:35;13.87;;;6.03;;
64894;SDS011;51588;53.702;10.208;2022-10-31T09:53:08;11.70;;;6.13;;
64894;SDS011;51588;53.702;10.208;2022-10-31T09:55:39;15.93;;;7.17;;
64894;SDS011;51588;53.702;10.208;2022-10-31T09:58:08;9.83;;;6.00;;
64894;SDS011;51588;53.702;10.208;2022-10-31T10:00:41;12.70;;;6.00;;
64894;SDS011;51588;53.702;10.208;2022-10-31T10:03:10;9.97;;;6.10;;
64894;SDS011;51588;53.702;10.208;2022-10-31T10:05:43;10.70;;;5.60;;
64894;SDS011;51588;53.702;10.208;2022-10-31T10:08:18;10.33;;;5.77;;
64894;SDS011;51588;53.702;10.208;2022-10-31T10:10:48;12.77;;;5.90;;
64894;SDS011;51588;53.702;10.208;2022-10-31T10:13:22;10.40;;;5.70;;
64894;SDS011;51588;53.702;10.208;2022-10-31T10:19:00;9.40;;;5.57;;
64894;SDS011;51588;53.702;10.208;2022-10-31T10:21:39;8.87;;;4.80;;
64894;SDS011;51588;53.702;10.208;2022-10-31T10:24:25;9.13;;;5.47;;
64894;SDS011;51588;53.702;10.208;2022-10-31T10:27:08;11.23;;;6.10;;
64894;SDS011;51588;53.702;10.208;2022-10-31T10:29:42;8.93;;;5.80;;
64894;SDS011;51588;53.702;10.208;2022-10-31T10:32:19;9.60;;;4.97;;
64894;SDS011;51588;53.702;10.208;2022-10-31T10:34:49;9.47;;;5.70;;
64894;SDS011;51588;53.702;10.208;2022-10-31T10:37:24;10.40;;;5.23;;
64894;SDS011;51588;53.702;10.208;2022-10-31T10:40:00;7.00;;;5.43;;
64894;SDS011;51588;53.702;10.208;2022-10-31T10:42:33;8.27;;;5.40;;
64894;SDS011;51588;53.702;10.208;2022-10-31T10:45:18;11.83;;;6.10;;
64894;SDS011;51588;53.702;10.208;2022-10-31T10:48:20;7.70;;;5.20;;
64894;SDS011;51588;53.702;10.208;2022-10-31T10:50:53;9.30;;;5.20;;
64894;SDS011;51588;53.702;10.208;2022-10-31T10:53:24;14.27;;;6.97;;
64894;SDS011;51588;53.702;10.208;2022-10-31T10:56:03;17.17;;;8.40;;
64894;SDS011;51588;53.702;10.208;2022-10-31T10:58:37;19.50;;;9.13;;
64894;SDS011;51588;53.702;10.208;2022-10-31T11:01:08;23.97;;;11.40;;
64894;SDS011;51588;53.702;10.208;2022-10-31T11:03:38;27.00;;;13.20;;
64894;SDS011;51588;53.702;10.208;2022-10-31T11:06:15;19.97;;;11.40;;
64894;SDS011;51588;53.702;10.208;2022-10-31T11:08:45;23.27;;;10.13;;
64894;SDS011;51588;53.702;10.208;2022-10-31T11:11:15;23.17;;;9.73;;
64894;SDS011;51588;53.702;10.208;2022-10-31T11:13:51;25.50;;;9.63;;
64894;SDS011;51588;53.702;10.208;2022-10-31T11:16:27;24.03;;;9.60;;
64894;SDS011;51588;53.702;10.208;2022-10-31T11:19:06;21.27;;;9.53;;
64894;SDS011;51588;53.702;10.208;2022-10-31T11:21:34;16.47;;;8.07;;
64894;SDS011;51588;53.702;10.208;2022-10-31T11:24:02;15.37;;;8.73;;
64894;SDS011;51588;53.702;10.208;2022-10-31T11:26:29;16.93;;;8.00;;
64894;SDS011;51588;53.702;10.208;2022-10-31T11:28:56;20.83;;;9.30;;
64894;SDS011;51588;53.702;10.208;2022-10-31T11:31:23;15.23;;;7.40;;
64894;SDS011;51588;53.702;10.208;2022-10-31T11:33:52;18.57;;;8.23;;
64894;SDS011;51588;53.702;10.208;2022-10-31T11:36:25;14.10;;;7.70;;
64894;SDS011;51588;53.702;10.208;2022-10-31T11:38:54;17.43;;;7.80;;
64894;SDS011;51588;53.702;10.208;2022-10-31T11:41:24;16.77;;;7.27;;
64894;SDS011;51588;53.702;10.208;2022-10-31T11:43:54;14.57;;;7.60;;
64894;SDS011;51588;53.702;10.208;2022-10-31T11:46:24;13.10;;;7.00;;
64894;SDS011;51588;53.702;10.208;2022-10-31T11:48:56;13.90;;;7.20;;
64894;SDS011;51588;53.702;10.208;2022-10-31T11:51:25;17.00;;;7.43;;
64894;SDS011;51588;53.702;10.208;2022-10-31T11:53:55;10.87;;;6.70;;
64894;SDS011;51588;53.702;10.208;2022-10-31T11:56:23;16.23;;;7.53;;
64894;SDS011;51588;53.702;10.208;2022-10-31T11:58:56;10.63;;;6.77;;
64894;SDS011;51588;53.702;10.208;2022-10-31T12:01:26;14.13;;;6.43;;
64894;SDS011;51588;53.702;10.208;2022-10-31T12:03:58;14.10;;;6.23;;
64894;SDS011;51588;53.702;10.208;2022-10-31T12:06:31;11.60;;;7.03;;
64894;SDS011;51588;53.702;10.208;2022-10-31T12:09:01;12.57;;;6.40;;
64894;SDS011;51588;53.702;10.208;2022-10-31T12:11:33;12.60;;;6.50;;
64894;SDS011;51588;53.702;10.208;2022-10-31T12:14:12;12.40;;;6.90;;
64894;SDS011;51588;53.702;10.208;2022-10-31T12:16:49;10.33;;;6.07;;
64894;SDS011;51588;53.702;10.208;2022-10-31T12:19:23;11.40;;;6.47;;
64894;SDS011;51588;53.702;10.208;2022-10-31T12:22:04;13.80;;;6.00;;
64894;SDS011;51588;53.702;10.208;2022-10-31T12:24:41;9.40;;;5.97;;
64894;SDS011;51588;53.702;10.208;2022-10-31T12:27:20;10.50;;;5.40;;
64894;SDS011;51588;53.702;10.208;2022-10-31T12:30:02;9.30;;;5.57;;
64894;SDS011;51588;53.702;10.208;2022-10-31T12:32:40;9.83;;;5.87;;
64894;SDS011;51588;53.702;10.208;2022-10-31T12:35:23;10.30;;;5.50;;
64894;SDS011;51588;53.702;10.208;2022-10-31T12:38:07;12.20;;;5.60;;
64894;SDS011;51588;53.702;10.208;2022-10-31T12:40:49;16.30;;;5.90;;
64894;SDS011;51588;53.702;10.208;2022-10-31T12:43:26;12.93;;;6.20;;
64894;SDS011;51588;53.702;10.208;2022-10-31T12:46:03;12.23;;;7.10;;
64894;SDS011;51588;53.702;10.208;2022-10-31T12:48:46;10.60;;;6.30;;
64894;SDS011;51588;53.702;10.208;2022-10-31T12:51:39;12.90;;;5.70;;
64894;SDS011;51588;53.702;10.208;2022-10-31T12:54:20;12.10;;;6.10;;
64894;SDS011;51588;53.702;10.208;2022-10-31T12:57:02;11.17;;;5.90;;
64894;SDS011;51588;53.702;10.208;2022-10-31T12:59:39;8.57;;;6.03;;
64894;SDS011;51588;53.702;10.208;2022-10-31T13:02:13;14.07;;;6.30;;
64894;SDS011;51588;53.702;10.208;2022-10-31T13:04:46;12.93;;;6.60;;
64894;SDS011;51588;53.702;10.208;2022-10-31T13:07:17;11.10;;;5.63;;
64894;SDS011;51588;53.702;10.208;2022-10-31T13:09:53;10.00;;;5.70;;
64894;SDS011;51588;53.702;10.208;2022-10-31T13:12:23;14.77;;;6.03;;
64894;SDS011;51588;53.702;10.208;2022-10-31T13:14:51;17.77;;;6.40;;
64894;SDS011;51588;53.702;10.208;2022-10-31T13:17:23;14.90;;;6.23;;
64894;SDS011;51588;53.702;10.208;2022-10-31T13:19:55;9.00;;;5.80;;
64894;SDS011;51588;53.702;10.208;2022-10-31T13:22:34;13.90;;;6.20;;
64894;SDS011;51588;53.702;10.208;2022-10-31T13:25:11;12.70;;;5.93;;
64894;SDS011;51588;53.702;10.208;2022-10-31T13:27:44;15.80;;;5.97;;
64894;SDS011;51588;53.702;10.208;2022-10-31T13:30:14;11.60;;;5.97;;
64894;SDS011;51588;53.702;10.208;2022-10-31T13:32:44;12.17;;;6.40;;
64894;SDS011;51588;53.702;10.208;2022-10-31T13:35:14;10.87;;;5.90;;
64894;SDS011;51588;53.702;10.208;2022-10-31T13:37:48;18.27;;;6.27;;
64894;SDS011;51588;53.702;10.208;2022-10-31T13:40:21;11.47;;;5.37;;
64894;SDS011;51588;53.702;10.208;2022-10-31T13:42:59;16.57;;;5.73;;
64894;SDS011;51588;53.702;10.208;2022-10-31T13:45:32;15.67;;;5.60;;
64894;SDS011;51588;53.702;10.208;2022-10-31T13:47:59;9.47;;;5.63;;
64894;SDS011;51588;53.702;10.208;2022-10-31T13:50:27;9.60;;;6.00;;
64894;SDS011;51588;53.702;10.208;2022-10-31T13:55:48;8.27;;;5.50;;
64894;SDS011;51588;53.702;10.208;2022-10-31T13:58:29;7.67;;;5.00;;
64894;SDS011;51588;53.702;10.208;2022-10-31T14:01:03;9.23;;;6.20;;
64894;SDS011;51588;53.702;10.208;2022-10-31T14:03:39;11.10;;;6.13;;
64894;SDS011;51588;53.702;10.208;2022-10-31T14:06:08;8.13;;;5.70;;
64894;SDS011;51588;53.702;10.208;2022-10-31T14:08:37;8.93;;;6.03;;
64894;SDS011;51588;53.702;10.208;2022-10-31T14:11:22;7.30;;;5.30;;
64894;SDS011;51588;53.702;10.208;2022-10-31T14:13:51;9.27;;;6.00;;
64894;SDS011;51588;53.702;10.208;2022-10-31T14:16:20;14.40;;;5.57;;
64894;SDS011;51588;53.702;10.208;2022-10-31T14:18:51;10.63;;;5.40;;
64894;SDS011;51588;53.702;10.208;2022-10-31T14:21:26;8.80;;;5.00;;
64894;SDS011;51588;53.702;10.208;2022-10-31T14:23:55;8.27;;;5.93;;
64894;SDS011;51588;53.702;10.208;2022-10-31T14:26:36;10.20;;;5.80;;
64894;SDS011;51588;53.702;10.208;2022-10-31T14:31:52;7.97;;;5.27;;
64894;SDS011;51588;53.702;10.208;2022-10-31T14:34:23;9.63;;;5.60;;
64894;SDS011;51588;53.702;10.208;2022-10-31T14:36:58;10.47;;;5.50;;
64894;SDS011;51588;53.702;10.208;2022-10-31T14:39:32;15.00;;;5.60;;
64894;SDS011;51588;53.702;10.208;2022-10-31T14:42:14;11.93;;;5.80;;
64894;SDS011;51588;53.702;10.208;2022-10-31T14:45:01;7.53;;;5.43;;
64894;SDS011;51588;53.702;10.208;2022-10-31T14:47:42;10.00;;;5.13;;
64894;SDS011;51588;53.702;10.208;2022-10-31T14:50:20;7.30;;;5.13;;